CheckWX is a tool to help pilots better visualize weather data.  It is not intended as a substitute for an official pre-flight weather briefing.

10:35:31 UTC

YTNK TAF
Tennant Creek Airport
Tennant Creek, Australia
TAF YTNK 250009Z 2502/2514 10014KT CAVOK FM250900 10007KT CAVOK

May-25@
02:00 UTC

May-25 @ 02:00 UTC

May-25@
09:00 UTC

May-25 @ 09:00 UTC

TAF YTNK 250009Z 2502/2514 10014KT CAVOK

Expired

Wind
  • 100° at 14 KTS
Conditions
No significant weather
Cloud Levels
  • No significant clouds

May-25@
09:00 UTC

May-25 @ 09:00 UTC

May-25@
14:00 UTC

May-25 @ 14:00 UTC

FM250900 10007KT CAVOK

From

From Standard forecast or significant change

Wind
  • 100° at 7 KTS
Conditions
No significant weather
Cloud Levels
  • No significant clouds